sensor_id;sensor_type;location;lat;lon;timestamp;pressure;altitude;pressure_sealevel;temperature;humidity
77799;BME280;66989;50.426;15.352;2023-07-20T00:00:22;97667.31;;;17.43;76.99
77799;BME280;66989;50.426;15.352;2023-07-20T00:02:50;97658.16;;;17.46;77.32
77799;BME280;66989;50.426;15.352;2023-07-20T00:05:16;97650.31;;;17.44;77.79
77799;BME280;66989;50.426;15.352;2023-07-20T00:07:43;97642.81;;;17.40;77.50
77799;BME280;66989;50.426;15.352;2023-07-20T00:10:09;97653.84;;;17.36;78.24
77799;BME280;66989;50.426;15.352;2023-07-20T00:12:35;97656.84;;;17.33;78.40
77799;BME280;66989;50.426;15.352;2023-07-20T00:15:00;97653.53;;;17.31;78.76
77799;BME280;66989;50.426;15.352;2023-07-20T00:17:25;97666.88;;;17.31;78.92
77799;BME280;66989;50.426;15.352;2023-07-20T00:19:51;97669.16;;;17.34;79.18
77799;BME280;66989;50.426;15.352;2023-07-20T00:22:16;97667.31;;;17.35;79.35
77799;BME280;66989;50.426;15.352;2023-07-20T00:24:41;97661.84;;;17.36;80.19
77799;BME280;66989;50.426;15.352;2023-07-20T00:27:07;97671.31;;;17.39;80.24
77799;BME280;66989;50.426;15.352;2023-07-20T00:29:32;97670.16;;;17.42;79.99
77799;BME280;66989;50.426;15.352;2023-07-20T00:31:58;97677.97;;;17.43;80.32
77799;BME280;66989;50.426;15.352;2023-07-20T00:34:24;97682.66;;;17.41;80.20
77799;BME280;66989;50.426;15.352;2023-07-20T00:36:49;97683.00;;;17.38;80.48
77799;BME280;66989;50.426;15.352;2023-07-20T00:39:15;97684.19;;;17.27;81.97
77799;BME280;66989;50.426;15.352;2023-07-20T00:41:40;97690.56;;;17.18;82.47
77799;BME280;66989;50.426;15.352;2023-07-20T00:44:06;97689.75;;;17.09;82.97
77799;BME280;66989;50.426;15.352;2023-07-20T00:46:32;97702.91;;;17.03;83.14
77799;BME280;66989;50.426;15.352;2023-07-20T00:48:57;97706.59;;;16.94;84.25
77799;BME280;66989;50.426;15.352;2023-07-20T00:51:25;97708.09;;;16.88;83.56
77799;BME280;66989;50.426;15.352;2023-07-20T00:53:50;97716.63;;;16.83;84.23
77799;BME280;66989;50.426;15.352;2023-07-20T00:56:16;97723.59;;;16.76;84.25
77799;BME280;66989;50.426;15.352;2023-07-20T00:58:42;97724.94;;;16.72;84.22
77799;BME280;66989;50.426;15.352;2023-07-20T01:01:07;97714.97;;;16.66;84.00
77799;BME280;66989;50.426;15.352;2023-07-20T01:03:32;97721.28;;;16.57;84.14
77799;BME280;66989;50.426;15.352;2023-07-20T01:06:13;97723.97;;;16.49;84.45
77799;BME280;66989;50.426;15.352;2023-07-20T01:08:45;97733.56;;;16.42;84.74
77799;BME280;66989;50.426;15.352;2023-07-20T01:11:31;97726.91;;;16.38;84.50
77799;BME280;66989;50.426;15.352;2023-07-20T01:14:00;97731.06;;;16.32;84.16
77799;BME280;66989;50.426;15.352;2023-07-20T01:16:27;97723.72;;;16.26;84.59
77799;BME280;66989;50.426;15.352;2023-07-20T01:18:52;97728.56;;;16.22;84.35
77799;BME280;66989;50.426;15.352;2023-07-20T01:21:22;97727.22;;;16.18;84.50
77799;BME280;66989;50.426;15.352;2023-07-20T01:32:04;97736.19;;;16.01;84.88
77799;BME280;66989;50.426;15.352;2023-07-20T01:34:32;97740.16;;;15.97;85.07
77799;BME280;66989;50.426;15.352;2023-07-20T01:37:01;97751.09;;;15.94;86.06
77799;BME280;66989;50.426;15.352;2023-07-20T01:39:26;97757.06;;;15.88;85.71
77799;BME280;66989;50.426;15.352;2023-07-20T01:41:52;97766.38;;;15.84;86.01
77799;BME280;66989;50.426;15.352;2023-07-20T01:44:18;97764.19;;;15.79;86.49
77799;BME280;66989;50.426;15.352;2023-07-20T01:46:43;97774.63;;;15.72;86.96
77799;BME280;66989;50.426;15.352;2023-07-20T01:49:09;97774.44;;;15.66;87.40
77799;BME280;66989;50.426;15.352;2023-07-20T01:51:34;97766.25;;;15.59;87.62
77799;BME280;66989;50.426;15.352;2023-07-20T01:53:59;97761.44;;;15.54;87.52
77799;BME280;66989;50.426;15.352;2023-07-20T01:56:25;97764.59;;;15.50;87.83
77799;BME280;66989;50.426;15.352;2023-07-20T01:58:50;97766.72;;;15.46;87.86
77799;BME280;66989;50.426;15.352;2023-07-20T02:01:15;97770.50;;;15.44;87.88
77799;BME280;66989;50.426;15.352;2023-07-20T02:03:41;97759.22;;;15.42;88.53
77799;BME280;66989;50.426;15.352;2023-07-20T02:06:06;97762.88;;;15.41;88.70
77799;BME280;66989;50.426;15.352;2023-07-20T02:08:31;97757.03;;;15.37;88.30
77799;BME280;66989;50.426;15.352;2023-07-20T02:10:57;97764.16;;;15.37;88.65
77799;BME280;66989;50.426;15.352;2023-07-20T02:13:22;97766.16;;;15.35;88.12
77799;BME280;66989;50.426;15.352;2023-07-20T02:15:48;97769.97;;;15.32;88.61
77799;BME280;66989;50.426;15.352;2023-07-20T02:18:14;97772.13;;;15.28;88.74
77799;BME280;66989;50.426;15.352;2023-07-20T02:20:41;97756.31;;;15.27;89.13
77799;BME280;66989;50.426;15.352;2023-07-20T02:23:06;97759.31;;;15.24;89.58
77799;BME280;66989;50.426;15.352;2023-07-20T02:25:31;97752.47;;;15.21;89.76
77799;BME280;66989;50.426;15.352;2023-07-20T02:27:57;97748.13;;;15.20;89.95
77799;BME280;66989;50.426;15.352;2023-07-20T02:30:22;97750.94;;;15.19;90.16
77799;BME280;66989;50.426;15.352;2023-07-20T02:32:48;97756.38;;;15.17;90.37
77799;BME280;66989;50.426;15.352;2023-07-20T02:35:17;97758.22;;;15.17;90.22
77799;BME280;66989;50.426;15.352;2023-07-20T02:37:42;97765.34;;;15.16;90.30
77799;BME280;66989;50.426;15.352;2023-07-20T02:40:08;97762.03;;;15.14;90.50
77799;BME280;66989;50.426;15.352;2023-07-20T02:42:34;97760.38;;;15.13;90.23
77799;BME280;66989;50.426;15.352;2023-07-20T02:45:00;97763.16;;;15.12;90.28
77799;BME280;66989;50.426;15.352;2023-07-20T02:47:25;97756.34;;;15.09;90.19
77799;BME280;66989;50.426;15.352;2023-07-20T02:49:51;97758.31;;;15.07;90.33
77799;BME280;66989;50.426;15.352;2023-07-20T02:52:16;97755.84;;;15.06;90.59
77799;BME280;66989;50.426;15.352;2023-07-20T02:54:41;97760.59;;;15.02;90.57
77799;BME280;66989;50.426;15.352;2023-07-20T02:57:07;97764.25;;;15.01;91.18
77799;BME280;66989;50.426;15.352;2023-07-20T02:59:32;97761.59;;;15.01;90.63
77799;BME280;66989;50.426;15.352;2023-07-20T03:01:58;97757.28;;;15.00;90.46
77799;BME280;66989;50.426;15.352;2023-07-20T03:04:26;97760.13;;;14.98;90.88
77799;BME280;66989;50.426;15.352;2023-07-20T03:06:51;97753.97;;;14.98;90.78
77799;BME280;66989;50.426;15.352;2023-07-20T03:09:16;97758.44;;;14.97;90.76
77799;BME280;66989;50.426;15.352;2023-07-20T03:11:42;97762.91;;;14.97;90.71
77799;BME280;66989;50.426;15.352;2023-07-20T03:14:07;97754.94;;;14.97;90.77
77799;BME280;66989;50.426;15.352;2023-07-20T03:16:33;97752.59;;;14.94;90.89
77799;BME280;66989;50.426;15.352;2023-07-20T03:18:59;97757.91;;;14.94;90.43
77799;BME280;66989;50.426;15.352;2023-07-20T03:21:26;97769.38;;;14.94;91.04
77799;BME280;66989;50.426;15.352;2023-07-20T03:23:51;97771.19;;;14.94;90.71
77799;BME280;66989;50.426;15.352;2023-07-20T03:26:16;97775.50;;;14.95;90.66
77799;BME280;66989;50.426;15.352;2023-07-20T03:28:42;97769.06;;;14.97;91.07
77799;BME280;66989;50.426;15.352;2023-07-20T03:31:07;97776.19;;;14.97;90.73
77799;BME280;66989;50.426;15.352;2023-07-20T03:33:33;97778.00;;;14.96;90.50
77799;BME280;66989;50.426;15.352;2023-07-20T03:35:59;97781.81;;;14.94;91.23
77799;BME280;66989;50.426;15.352;2023-07-20T03:38:25;97776.66;;;14.92;91.14
77799;BME280;66989;50.426;15.352;2023-07-20T03:40:51;97774.16;;;14.91;91.54
77799;BME280;66989;50.426;15.352;2023-07-20T03:43:17;97777.50;;;14.93;91.71
77799;BME280;66989;50.426;15.352;2023-07-20T03:45:43;97787.13;;;14.94;91.82
77799;BME280;66989;50.426;15.352;2023-07-20T03:48:08;97786.97;;;14.95;91.73
77799;BME280;66989;50.426;15.352;2023-07-20T03:50:34;97787.78;;;14.96;91.75
77799;BME280;66989;50.426;15.352;2023-07-20T03:52:59;97790.31;;;14.97;91.63
77799;BME280;66989;50.426;15.352;2023-07-20T03:55:24;97787.50;;;14.99;91.54
77799;BME280;66989;50.426;15.352;2023-07-20T03:57:50;97790.69;;;15.02;91.60
77799;BME280;66989;50.426;15.352;2023-07-20T04:00:16;97792.69;;;15.09;91.33
77799;BME280;66989;50.426;15.352;2023-07-20T04:02:42;97794.91;;;15.13;90.90
77799;BME280;66989;50.426;15.352;2023-07-20T04:05:08;97801.25;;;15.20;90.96
77799;BME280;66989;50.426;15.352;2023-07-20T04:07:33;97791.38;;;15.31;90.74
77799;BME280;66989;50.426;15.352;2023-07-20T04:09:58;97805.38;;;15.41;90.37
77799;BME280;66989;50.426;15.352;2023-07-20T04:12:24;97795.63;;;15.49;90.00
77799;BME280;66989;50.426;15.352;2023-07-20T04:14:49;97795.66;;;15.58;89.81
77799;BME280;66989;50.426;15.352;2023-07-20T04:17:14;97798.19;;;15.67;89.72
77799;BME280;66989;50.426;15.352;2023-07-20T04:19:40;97798.56;;;15.72;89.18
77799;BME280;66989;50.426;15.352;2023-07-20T04:22:05;97802.22;;;15.79;88.91
77799;BME280;66989;50.426;15.352;2023-07-20T04:24:30;97807.06;;;15.84;88.53
77799;BME280;66989;50.426;15.352;2023-07-20T04:26:56;97817.56;;;15.86;87.76
77799;BME280;66989;50.426;15.352;2023-07-20T04:29:21;97815.88;;;15.85;87.38
77799;BME280;66989;50.426;15.352;2023-07-20T04:31:46;97816.88;;;15.84;87.50
77799;BME280;66989;50.426;15.352;2023-07-20T04:34:12;97813.91;;;15.87;87.54
77799;BME280;66989;50.426;15.352;2023-07-20T04:36:37;97816.91;;;15.92;87.46
77799;BME280;66989;50.426;15.352;2023-07-20T04:39:03;97811.13;;;15.96;87.39
77799;BME280;66989;50.426;15.352;2023-07-20T04:41:29;97812.97;;;16.04;87.84
77799;BME280;66989;50.426;15.352;2023-07-20T04:43:55;97817.50;;;16.12;87.83
77799;BME280;66989;50.426;15.352;2023-07-20T04:46:20;97823.00;;;16.18;87.46
77799;BME280;66989;50.426;15.352;2023-07-20T04:48:46;97822.50;;;16.23;87.68
77799;BME280;66989;50.426;15.352;2023-07-20T04:51:13;97811.03;;;16.30;87.37
77799;BME280;66989;50.426;15.352;2023-07-20T04:53:38;97813.56;;;16.40;87.33
77799;BME280;66989;50.426;15.352;2023-07-20T04:56:04;97814.28;;;16.50;86.72
77799;BME280;66989;50.426;15.352;2023-07-20T04:58:29;97815.44;;;16.56;86.88
77799;BME280;66989;50.426;15.352;2023-07-20T05:00:54;97816.78;;;16.60;86.79
77799;BME280;66989;50.426;15.352;2023-07-20T05:03:20;97823.78;;;16.69;86.45
77799;BME280;66989;50.426;15.352;2023-07-20T05:05:49;97821.78;;;16.79;86.20
77799;BME280;66989;50.426;15.352;2023-07-20T05:08:14;97828.63;;;16.90;85.77
77799;BME280;66989;50.426;15.352;2023-07-20T05:10:39;97828.94;;;17.03;85.50
77799;BME280;66989;50.426;15.352;2023-07-20T05:13:05;97831.09;;;17.16;85.15
77799;BME280;66989;50.426;15.352;2023-07-20T05:15:33;97832.41;;;17.28;84.46
77799;BME280;66989;50.426;15.352;2023-07-20T05:17:59;97841.06;;;17.47;84.45
77799;BME280;66989;50.426;15.352;2023-07-20T05:20:25;97832.34;;;17.77;83.53
77799;BME280;66989;50.426;15.352;2023-07-20T05:22:50;97831.72;;;18.06;82.12
77799;BME280;66989;50.426;15.352;2023-07-20T05:25:15;97829.63;;;18.25;80.77
77799;BME280;66989;50.426;15.352;2023-07-20T05:27:43;97827.47;;;18.51;80.71
77799;BME280;66989;50.426;15.352;2023-07-20T05:30:09;97833.03;;;18.73;79.29
77799;BME280;66989;50.426;15.352;2023-07-20T05:32:34;97822.22;;;18.89;78.57
77799;BME280;66989;50.426;15.352;2023-07-20T05:35:00;97816.88;;;19.12;77.76
77799;BME280;66989;50.426;15.352;2023-07-20T05:37:25;97820.03;;;19.30;76.79
77799;BME280;66989;50.426;15.352;2023-07-20T05:39:51;97815.63;;;19.37;75.96
77799;BME280;66989;50.426;15.352;2023-07-20T05:42:16;97822.53;;;19.47;75.94
77799;BME280;66989;50.426;15.352;2023-07-20T05:44:41;97829.28;;;19.42;75.36
77799;BME280;66989;50.426;15.352;2023-07-20T05:47:07;97825.88;;;19.49;75.18
77799;BME280;66989;50.426;15.352;2023-07-20T05:49:34;97825.97;;;19.55;75.10
77799;BME280;66989;50.426;15.352;2023-07-20T05:51:59;97826.44;;;19.59;75.03
77799;BME280;66989;50.426;15.352;2023-07-20T05:54:26;97831.00;;;19.73;74.45
77799;BME280;66989;50.426;15.352;2023-07-20T05:56:52;97839.94;;;19.80;73.73
77799;BME280;66989;50.426;15.352;2023-07-20T05:59:17;97843.63;;;19.79;73.78
77799;BME280;66989;50.426;15.352;2023-07-20T06:01:46;97848.88;;;19.87;73.78
77799;BME280;66989;50.426;15.352;2023-07-20T06:04:13;97846.75;;;19.98;72.97
77799;BME280;66989;50.426;15.352;2023-07-20T06:06:39;97839.19;;;20.16;72.32
77799;BME280;66989;50.426;15.352;2023-07-20T06:09:04;97843.22;;;20.27;71.99
77799;BME280;66989;50.426;15.352;2023-07-20T06:11:33;97840.63;;;20.33;71.25
77799;BME280;66989;50.426;15.352;2023-07-20T06:13:59;97840.84;;;20.53;70.63
77799;BME280;66989;50.426;15.352;2023-07-20T06:16:24;97834.09;;;20.72;69.21
77799;BME280;66989;50.426;15.352;2023-07-20T06:18:50;97838.22;;;20.96;68.20
77799;BME280;66989;50.426;15.352;2023-07-20T06:21:15;97841.13;;;21.22;67.44
77799;BME280;66989;50.426;15.352;2023-07-20T06:23:40;97839.25;;;21.44;66.37
77799;BME280;66989;50.426;15.352;2023-07-20T06:26:07;97833.88;;;21.72;64.46
77799;BME280;66989;50.426;15.352;2023-07-20T06:28:32;97837.75;;;21.98;62.86
77799;BME280;66989;50.426;15.352;2023-07-20T06:31:02;97844.03;;;22.12;62.74
77799;BME280;66989;50.426;15.352;2023-07-20T06:33:27;97841.00;;;22.28;61.61
77799;BME280;66989;50.426;15.352;2023-07-20T06:35:53;97841.22;;;22.26;60.72
77799;BME280;66989;50.426;15.352;2023-07-20T06:38:19;97847.22;;;22.35;60.31
77799;BME280;66989;50.426;15.352;2023-07-20T06:40:46;97841.22;;;22.26;61.13
77799;BME280;66989;50.426;15.352;2023-07-20T06:43:11;97848.59;;;22.18;61.76
77799;BME280;66989;50.426;15.352;2023-07-20T06:45:37;97856.81;;;22.10;61.32
77799;BME280;66989;50.426;15.352;2023-07-20T06:48:02;97852.47;;;22.09;61.80
77799;BME280;66989;50.426;15.352;2023-07-20T06:50:28;97843.44;;;22.16;59.97
77799;BME280;66989;50.426;15.352;2023-07-20T06:52:54;97850.03;;;22.20;59.02
77799;BME280;66989;50.426;15.352;2023-07-20T06:55:19;97845.19;;;22.44;58.96
77799;BME280;66989;50.426;15.352;2023-07-20T06:57:44;97840.97;;;22.69;58.84
77799;BME280;66989;50.426;15.352;2023-07-20T07:00:10;97845.94;;;22.92;57.46
77799;BME280;66989;50.426;15.352;2023-07-20T07:02:37;97848.47;;;23.00;56.42
77799;BME280;66989;50.426;15.352;2023-07-20T07:05:03;97840.56;;;22.92;56.76
77799;BME280;66989;50.426;15.352;2023-07-20T07:07:29;97834.38;;;22.98;55.68
77799;BME280;66989;50.426;15.352;2023-07-20T07:09:54;97842.69;;;23.10;55.38
77799;BME280;66989;50.426;15.352;2023-07-20T07:12:20;97848.69;;;22.99;55.44
77799;BME280;66989;50.426;15.352;2023-07-20T07:14:45;97845.56;;;22.95;55.42
77799;BME280;66989;50.426;15.352;2023-07-20T07:17:10;97848.44;;;22.87;56.15
77799;BME280;66989;50.426;15.352;2023-07-20T07:19:36;97842.66;;;22.90;56.15
77799;BME280;66989;50.426;15.352;2023-07-20T07:22:03;97850.94;;;22.95;56.47
77799;BME280;66989;50.426;15.352;2023-07-20T07:24:29;97843.69;;;23.02;56.24
77799;BME280;66989;50.426;15.352;2023-07-20T07:26:59;97851.34;;;22.92;56.35
77799;BME280;66989;50.426;15.352;2023-07-20T07:29:24;97855.31;;;23.10;55.80
77799;BME280;66989;50.426;15.352;2023-07-20T07:31:50;97846.38;;;23.02;55.81
77799;BME280;66989;50.426;15.352;2023-07-20T07:34:17;97847.84;;;23.12;55.34
77799;BME280;66989;50.426;15.352;2023-07-20T07:36:43;97858.00;;;23.10;55.88
77799;BME280;66989;50.426;15.352;2023-07-20T07:39:09;97854.44;;;23.02;55.12
77799;BME280;66989;50.426;15.352;2023-07-20T07:41:35;97854.84;;;22.86;55.13
77799;BME280;66989;50.426;15.352;2023-07-20T07:44:01;97858.78;;;22.84;55.66
77799;BME280;66989;50.426;15.352;2023-07-20T07:46:26;97854.03;;;22.86;55.33
77799;BME280;66989;50.426;15.352;2023-07-20T07:48:51;97856.75;;;23.12;54.91
77799;BME280;66989;50.426;15.352;2023-07-20T07:51:17;97858.84;;;23.37;54.58
77799;BME280;66989;50.426;15.352;2023-07-20T07:53:42;97855.34;;;23.43;53.94
77799;BME280;66989;50.426;15.352;2023-07-20T07:56:09;97856.34;;;23.75;52.85
77799;BME280;66989;50.426;15.352;2023-07-20T07:58:34;97850.78;;;23.56;52.17
77799;BME280;66989;50.426;15.352;2023-07-20T08:01:00;97855.75;;;23.46;51.04
77799;BME280;66989;50.426;15.352;2023-07-20T08:03:25;97858.22;;;23.61;51.23
77799;BME280;66989;50.426;15.352;2023-07-20T08:05:53;97860.44;;;24.10;51.03
77799;BME280;66989;50.426;15.352;2023-07-20T08:08:18;97858.75;;;24.23;50.40
77799;BME280;66989;50.426;15.352;2023-07-20T08:10:44;97860.41;;;24.24;50.16
77799;BME280;66989;50.426;15.352;2023-07-20T08:13:09;97858.09;;;24.34;50.33
77799;BME280;66989;50.426;15.352;2023-07-20T08:15:35;97860.59;;;24.22;48.87
77799;BME280;66989;50.426;15.352;2023-07-20T08:18:00;97857.72;;;24.10;48.40
77799;BME280;66989;50.426;15.352;2023-07-20T08:20:25;97866.63;;;24.04;49.37
77799;BME280;66989;50.426;15.352;2023-07-20T08:22:53;97877.13;;;24.39;48.03
77799;BME280;66989;50.426;15.352;2023-07-20T08:25:19;97870.13;;;24.76;47.94
77799;BME280;66989;50.426;15.352;2023-07-20T08:27:45;97875.78;;;25.06;46.98
77799;BME280;66989;50.426;15.352;2023-07-20T08:30:12;97862.84;;;25.40;46.29
77799;BME280;66989;50.426;15.352;2023-07-20T08:32:38;97870.53;;;25.43;45.62
77799;BME280;66989;50.426;15.352;2023-07-20T08:35:03;97864.06;;;25.44;45.55
77799;BME280;66989;50.426;15.352;2023-07-20T08:37:29;97867.50;;;25.83;45.18
77799;BME280;66989;50.426;15.352;2023-07-20T08:39:54;97867.34;;;25.96;43.61
77799;BME280;66989;50.426;15.352;2023-07-20T08:42:20;97870.38;;;26.25;42.70
77799;BME280;66989;50.426;15.352;2023-07-20T08:44:48;97879.28;;;26.50;42.29
77799;BME280;66989;50.426;15.352;2023-07-20T08:47:15;97866.50;;;26.87;41.79
77799;BME280;66989;50.426;15.352;2023-07-20T08:49:41;97864.84;;;27.16;41.13
77799;BME280;66989;50.426;15.352;2023-07-20T08:52:07;97861.22;;;26.44;41.80
77799;BME280;66989;50.426;15.352;2023-07-20T08:54:33;97866.16;;;26.29;42.94
77799;BME280;66989;50.426;15.352;2023-07-20T08:57:02;97865.59;;;26.45;42.72
77799;BME280;66989;50.426;15.352;2023-07-20T08:59:29;97854.34;;;26.78;42.86
77799;BME280;66989;50.426;15.352;2023-07-20T09:01:56;97845.53;;;27.13;41.49
77799;BME280;66989;50.426;15.352;2023-07-20T09:04:22;97855.81;;;27.46;41.24
77799;BME280;66989;50.426;15.352;2023-07-20T09:06:49;97848.22;;;27.78;40.58
77799;BME280;66989;50.426;15.352;2023-07-20T09:09:14;97842.44;;;27.86;40.65
77799;BME280;66989;50.426;15.352;2023-07-20T09:11:40;97850.28;;;28.23;39.81
77799;BME280;66989;50.426;15.352;2023-07-20T09:14:06;97834.81;;;28.75;38.90
77799;BME280;66989;50.426;15.352;2023-07-20T09:16:32;97843.25;;;28.91;37.50
77799;BME280;66989;50.426;15.352;2023-07-20T09:18:58;97837.81;;;28.91;37.19
77799;BME280;66989;50.426;15.352;2023-07-20T09:21:28;97850.25;;;28.35;38.82
77799;BME280;66989;50.426;15.352;2023-07-20T09:23:56;97847.22;;;28.43;38.69
77799;BME280;66989;50.426;15.352;2023-07-20T09:26:22;97833.63;;;28.83;38.25
77799;BME280;66989;50.426;15.352;2023-07-20T09:28:49;97838.44;;;28.81;37.66
77799;BME280;66989;50.426;15.352;2023-07-20T09:31:22;97843.47;;;28.61;37.47
77799;BME280;66989;50.426;15.352;2023-07-20T09:33:48;97845.44;;;28.25;38.17
77799;BME280;66989;50.426;15.352;2023-07-20T09:36:14;97855.69;;;27.41;40.12
77799;BME280;66989;50.426;15.352;2023-07-20T09:38:42;97906.16;;;26.45;41.21
77799;BME280;66989;50.426;15.352;2023-07-20T09:41:08;97894.81;;;24.73;43.35
77799;BME280;66989;50.426;15.352;2023-07-20T09:43:38;97910.84;;;22.69;52.54
77799;BME280;66989;50.426;15.352;2023-07-20T09:46:04;97927.38;;;21.47;55.67
77799;BME280;66989;50.426;15.352;2023-07-20T09:48:30;97939.00;;;20.76;59.54
77799;BME280;66989;50.426;15.352;2023-07-20T09:50:55;97941.53;;;20.18;61.08
77799;BME280;66989;50.426;15.352;2023-07-20T09:53:24;97945.88;;;19.66;61.96
77799;BME280;66989;50.426;15.352;2023-07-20T09:55:55;97937.16;;;19.12;66.17
77799;BME280;66989;50.426;15.352;2023-07-20T09:58:28;97947.56;;;18.76;67.24
77799;BME280;66989;50.426;15.352;2023-07-20T10:01:02;97942.38;;;18.35;68.39
77799;BME280;66989;50.426;15.352;2023-07-20T10:03:33;97944.09;;;18.20;67.69
77799;BME280;66989;50.426;15.352;2023-07-20T10:06:05;97948.94;;;18.16;69.11
77799;BME280;66989;50.426;15.352;2023-07-20T10:08:38;97946.06;;;18.18;70.08
77799;BME280;66989;50.426;15.352;2023-07-20T10:11:07;97946.06;;;18.34;69.36
77799;BME280;66989;50.426;15.352;2023-07-20T10:13:38;97947.00;;;18.49;70.77
77799;BME280;66989;50.426;15.352;2023-07-20T10:16:10;97942.59;;;18.64;71.15
77799;BME280;66989;50.426;15.352;2023-07-20T10:18:59;97941.81;;;18.87;71.36
77799;BME280;66989;50.426;15.352;2023-07-20T10:21:27;97942.34;;;19.05;71.46
77799;BME280;66989;50.426;15.352;2023-07-20T10:23:55;97937.75;;;19.22;70.64
77799;BME280;66989;50.426;15.352;2023-07-20T10:26:21;97931.72;;;19.43;70.84
77799;BME280;66989;50.426;15.352;2023-07-20T10:28:46;97935.38;;;19.65;70.93
77799;BME280;66989;50.426;15.352;2023-07-20T10:31:13;97931.75;;;19.95;70.11
77799;BME280;66989;50.426;15.352;2023-07-20T10:33:39;97920.22;;;20.90;68.44
77799;BME280;66989;50.426;15.352;2023-07-20T10:36:06;97917.59;;;22.17;65.05
77799;BME280;66989;50.426;15.352;2023-07-20T10:41:28;97908.97;;;23.57;58.28
77799;BME280;66989;50.426;15.352;2023-07-20T10:44:09;97909.34;;;23.94;56.16
77799;BME280;66989;50.426;15.352;2023-07-20T10:49:05;97890.00;;;25.45;51.85
77799;BME280;66989;50.426;15.352;2023-07-20T10:51:39;97886.72;;;25.43;52.21
77799;BME280;66989;50.426;15.352;2023-07-20T10:54:08;97894.88;;;25.36;48.77
77799;BME280;66989;50.426;15.352;2023-07-20T10:56:33;97896.91;;;25.09;48.87
77799;BME280;66989;50.426;15.352;2023-07-20T10:58:59;97900.88;;;24.62;50.29
77799;BME280;66989;50.426;15.352;2023-07-20T11:01:29;97909.63;;;24.51;49.54
77799;BME280;66989;50.426;15.352;2023-07-20T11:03:58;97897.53;;;24.67;50.35
77799;BME280;66989;50.426;15.352;2023-07-20T11:09:13;97896.38;;;25.26;49.00
77799;BME280;66989;50.426;15.352;2023-07-20T11:11:46;97892.00;;;25.56;48.77
77799;BME280;66989;50.426;15.352;2023-07-20T11:14:25;97880.91;;;26.51;46.83
77799;BME280;66989;50.426;15.352;2023-07-20T11:16:53;97886.22;;;27.06;45.65
77799;BME280;66989;50.426;15.352;2023-07-20T11:19:28;97883.75;;;27.58;43.49
77799;BME280;66989;50.426;15.352;2023-07-20T11:21:56;97880.47;;;28.15;41.93
77799;BME280;66989;50.426;15.352;2023-07-20T11:24:22;97879.75;;;28.43;42.02
77799;BME280;66989;50.426;15.352;2023-07-20T11:26:52;97875.16;;;28.72;40.34
77799;BME280;66989;50.426;15.352;2023-07-20T11:29:19;97869.13;;;28.82;39.99
77799;BME280;66989;50.426;15.352;2023-07-20T11:31:46;97871.19;;;28.91;39.77
77799;BME280;66989;50.426;15.352;2023-07-20T11:34:19;97862.72;;;29.16;39.99
77799;BME280;66989;50.426;15.352;2023-07-20T11:36:47;97854.75;;;29.10;40.00
77799;BME280;66989;50.426;15.352;2023-07-20T11:39:14;97857.16;;;29.40;38.92
77799;BME280;66989;50.426;15.352;2023-07-20T11:41:46;97858.94;;;29.34;39.85
77799;BME280;66989;50.426;15.352;2023-07-20T11:44:11;97856.00;;;29.69;39.34
77799;BME280;66989;50.426;15.352;2023-07-20T11:46:41;97852.22;;;29.70;39.25
77799;BME280;66989;50.426;15.352;2023-07-20T11:49:08;97843.41;;;29.97;38.06
77799;BME280;66989;50.426;15.352;2023-07-20T11:51:34;97837.72;;;29.65;37.43
77799;BME280;66989;50.426;15.352;2023-07-20T11:54:01;97840.44;;;29.48;37.77
77799;BME280;66989;50.426;15.352;2023-07-20T11:56:27;97842.81;;;29.27;39.47
77799;BME280;66989;50.426;15.352;2023-07-20T11:58:55;97829.81;;;29.63;37.75
77799;BME280;66989;50.426;15.352;2023-07-20T12:01:24;97822.53;;;29.86;37.77
77799;BME280;66989;50.426;15.352;2023-07-20T12:03:49;97825.41;;;29.96;37.75
77799;BME280;66989;50.426;15.352;2023-07-20T12:06:16;97821.78;;;30.29;37.55
77799;BME280;66989;50.426;15.352;2023-07-20T12:08:42;97812.88;;;30.34;36.92
77799;BME280;66989;50.426;15.352;2023-07-20T12:11:08;97812.53;;;30.52;36.22
77799;BME280;66989;50.426;15.352;2023-07-20T12:13:43;97823.38;;;30.47;35.58
77799;BME280;66989;50.426;15.352;2023-07-20T12:16:16;97817.31;;;30.40;34.95
77799;BME280;66989;50.426;15.352;2023-07-20T12:18:42;97814.00;;;30.38;35.86
77799;BME280;66989;50.426;15.352;2023-07-20T12:21:09;97823.88;;;29.66;35.62
77799;BME280;66989;50.426;15.352;2023-07-20T12:23:35;97816.78;;;29.65;35.97
77799;BME280;66989;50.426;15.352;2023-07-20T12:26:00;97828.13;;;28.95;36.52
77799;BME280;66989;50.426;15.352;2023-07-20T12:28:25;97820.81;;;28.27;37.62
77799;BME280;66989;50.426;15.352;2023-07-20T12:30:51;97814.38;;;28.04;38.59
77799;BME280;66989;50.426;15.352;2023-07-20T12:33:21;97810.84;;;28.04;38.50
77799;BME280;66989;50.426;15.352;2023-07-20T12:35:48;97806.47;;;28.03;38.42
77799;BME280;66989;50.426;15.352;2023-07-20T12:38:14;97812.56;;;28.21;37.23
77799;BME280;66989;50.426;15.352;2023-07-20T12:40:41;97796.75;;;28.42;37.84
77799;BME280;66989;50.426;15.352;2023-07-20T12:43:06;97805.69;;;28.42;38.16
77799;BME280;66989;50.426;15.352;2023-07-20T12:45:32;97801.19;;;27.96;38.71
77799;BME280;66989;50.426;15.352;2023-07-20T12:47:58;97802.63;;;27.75;38.71
77799;BME280;66989;50.426;15.352;2023-07-20T12:50:24;97806.00;;;27.24;38.84
77799;BME280;66989;50.426;15.352;2023-07-20T12:52:49;97798.69;;;27.12;38.79
77799;BME280;66989;50.426;15.352;2023-07-20T12:55:15;97780.00;;;27.46;38.30
77799;BME280;66989;50.426;15.352;2023-07-20T12:57:40;97794.38;;;27.70;37.75
77799;BME280;66989;50.426;15.352;2023-07-20T13:00:11;97793.66;;;27.86;37.33
77799;BME280;66989;50.426;15.352;2023-07-20T13:02:37;97786.09;;;27.88;37.05